CCGS Henry Larsen — CGHL — position and weather

sailwx.info

Track history (hours):
 
Tides and Currents Weather Stations Pressure Air Temp Water Temp Dewpoint Dewpoint Depression Visibility Wind Speed Wind Dir Waves Ship Positions

CCGS Henry Larsen (Canada)

Medium Gulf/River Icebreaker

Last reported at 2019-Jan-24 05:00 UTC. Time now 2019-Jan-24 06:13 UTC.
Position N 51°18' W 056°54'.

Length 100.03 m; beam 19.82 m; draft 7.2 m.

Type: SAR. MMSI: 316013000.

Wind from 270 at 2 knots

Barometer 1021.4 mb
Air temperature -10.8 ° C
Dewpoint -13.0 ° C

Date/timePositionNaut miles runAvg speedWind from/ knotsBaromVisibWave heightAir tempDewpointWater temp
2019-Jan-24 05:00N 51°18' W 056°54'0 0.0 270 / 21021.4 -10.8-13.0
2019-Jan-24 04:00N 51°18' W 056°54'0 0.0 230 / 61021.9 -10.2-13.6
2019-Jan-24 03:00N 51°18' W 056°54'0 0.0 230 / 51022.1 -9.8-13.5
2019-Jan-24 02:00N 51°18' W 056°54'0 0.0 230 / 111021.6 -9.7-13.2
2019-Jan-24 01:00N 51°18' W 056°54'0 0.0 230 / 141021.8 -9.2-13.1
2019-Jan-24 00:00N 51°18' W 056°54'0 0.0 220 / 161021.6 -9.3-13.2
2019-Jan-23 23:00N 51°18' W 056°54'8 7.5 220 / 161021.4 -9.3-13.5
2019-Jan-23 22:00N 51°18' W 057°06'2914.4 240 / 151021.7 -9.8-13.3
2019-Jan-23 20:00N 51°00' W 057°42'1312.8 250 / 131021.1 -9.4-12.8
2019-Jan-23 19:00N 50°54' W 058°00'1312.9 250 / 131020.6 -8.8-13.5
2019-Jan-23 18:00N 50°48' W 058°18'1312.9 240 / 121020.1 -8.4-13.3
2019-Jan-23 17:00N 50°42' W 058°36'1312.9 260 / 81020.5 -9.5-15.5
2019-Jan-23 16:00N 50°36' W 058°54'1111.4 300 / 101020.9 -9.8-16.8
2019-Jan-23 15:00N 50°36' W 059°12'6 6.0 230 / 21021.9 -11.0-18.5
2019-Jan-23 14:00N 50°42' W 059°12'6 6.0 210 / 51021.4 -12.6-19.0
2019-Jan-23 13:00N 50°36' W 059°12'11 5.7 260 / 161020.6 -12.1-18.1
2019-Jan-23 11:00N 50°36' W 058°54'0 0.0 270 / 141019.7 -9.7-15.3
2019-Jan-23 10:00N 50°36' W 058°54'0 0.0 270 / 211018.8 -8.6-12.9
2019-Jan-23 09:00N 50°36' W 058°54'0 0.0 310 / 41017.1 -7.9-12.3
2019-Jan-23 08:00N 50°36' W 058°54'0 0.0 320 / 61015.8 -6.8-10.5
2019-Jan-23 07:00N 50°36' W 058°54'0 0.0 350 / 31014.8 -6.9-10.6
2019-Jan-23 06:00N 50°36' W 058°54'0 0.0 010 / 31013.4 -6.5-10.3
2019-Jan-23 05:00N 50°36' W 058°54'0 0.0 310 / 191012.0 -5.9-8.4
2019-Jan-23 04:00N 50°36' W 058°54'0 0.0 350 / 41010.6 -5.4-8.0
2019-Jan-23 03:00N 50°36' W 058°54'0 0.0 320 / 271008.1 -5.2-7.5
2019-Jan-23 02:00N 50°36' W 058°54'0 0.0 330 / 101006.9 -5.1-6.8
2019-Jan-23 01:00N 50°36' W 058°54'0 0.0 310 / 241005.7 -4.6-6.1
2019-Jan-22 23:00N 50°36' W 058°54'7 7.1 250 / 191005.6 -6.0-7.2
2019-Jan-22 22:00N 50°42' W 058°48'1414.2 200 / 151005.0 -5.9-7.1
2019-Jan-22 21:00N 50°54' W 058°36'1414.2 220 / 131004.0 -6.1-7.8
2019-Jan-22 20:00N 51°06' W 058°24'6 6.0 220 / 131003.7 -6.6-8.8
2019-Jan-22 19:00N 51°12' W 058°24'8 7.5 260 / 111004.0 -6.0-7.3
2019-Jan-22 18:00N 51°12' W 058°36'4 3.8 270 / 51003.8 -6.1-7.8
2019-Jan-22 17:00N 51°12' W 058°30'8 7.5 250 / 81003.5 -7.2-8.5
2019-Jan-22 16:00N 51°12' W 058°18'0 0.0 280 / 61003.3 -7.3-8.4
2019-Jan-22 15:00N 51°12' W 058°18'1515.0 230 / 31002.7 -7.0-8.1
2019-Jan-22 14:00N 51°12' W 057°54'1616.2 180 / 171002.8 -6.8-8.0
2019-Jan-22 13:00N 51°18' W 057°30'1515.0 200 / 201001.8 -5.9-7.6
2019-Jan-22 12:00N 51°18' W 057°06'6 6.0 190 / 21001.7 -5.0-7.0
2019-Jan-22 11:00N 51°24' W 057°06'1616.5 180 / 171000.7 -5.3-6.7
2019-Jan-22 10:00N 51°12' W 056°48'0 0.0 180 / 131000.0 -4.6-6.3
2019-Jan-22 09:00N 51°12' W 056°48'0 0.0 210 / 7998.2 -4.1-6.1
2019-Jan-22 08:00N 51°12' W 056°48'0 0.0 200 / 7998.5 -3.7-5.3
2019-Jan-22 07:00N 51°12' W 056°48'0 0.0 190 / 8996.3 -3.2-4.7
2019-Jan-22 06:00N 51°12' W 056°48'0 0.0 180 / 4996.2 -1.8-2.4
2019-Jan-22 04:00N 51°12' W 056°48'0 0.0 060 / 4995.5 -2.9-3.5
2019-Jan-22 03:00N 51°12' W 056°48'0 0.0 030 / 6994.7 -3.3-3.9
2019-Jan-22 02:00N 51°12' W 056°48'0 0.0 050 / 4995.9 -3.4-4.0
2019-Jan-22 01:00N 51°12' W 056°48'0 0.0 030 / 8994.3 -3.5-4.2
2019-Jan-22 00:00N 51°12' W 056°48'0 0.0 030 / 11995.2 -3.6-4.3
2019-Jan-21 23:00N 51°12' W 056°48'0 0.0 020 / 10995.9 -4.0-4.7
2019-Jan-21 22:00N 51°12' W 056°48'0 0.0 360 / 11996.0 -4.1-4.9
2019-Jan-21 21:00N 51°12' W 056°48'0 0.0 010 / 8995.5 -4.8-5.7
2019-Jan-21 20:00N 51°12' W 056°48'0 0.0 010 / 13994.6 -5.5-6.7
2019-Jan-21 19:00N 51°12' W 056°48'0 0.0 020 / 20994.7 -5.8-7.3
2019-Jan-21 18:00N 51°12' W 056°48'0 0.0 360 / 19993.7 -5.5-7.2
2019-Jan-21 16:00N 51°12' W 056°48'0 0.0 350 / 25993.3 -5.1-6.6
2019-Jan-21 15:00N 51°12' W 056°48'0 0.0 360 / 24993.3 -4.7-5.8
2019-Jan-21 14:00N 51°12' W 056°48'0 0.0 360 / 26993.8 -5.2-6.3
2019-Jan-21 13:00N 51°12' W 056°48'0 0.0 360 / 24994.8 -5.5-6.7
2019-Jan-21 12:00N 51°12' W 056°48'0 0.0 360 / 29995.6 -6.8-8.1
2019-Jan-21 11:00N 51°12' W 056°48'0 0.0 360 / 29997.5 -8.0-9.4
2019-Jan-21 10:00N 51°12' W 056°48'0 0.0 360 / 31999.9 -9.5-11.1
2019-Jan-21 09:00N 51°12' W 056°48'0 0.0 010 / 301002.5 -10.9-12.9
2019-Jan-21 08:00N 51°12' W 056°48'0 0.0 010 / 281006.6 -12.5-14.6
2019-Jan-21 07:00N 51°12' W 056°48'0 0.0 020 / 241009.6 -13.9-16.2
2019-Jan-21 06:00N 51°12' W 056°48'0 0.0 020 / 241013.7 -15.1-17.5
2019-Jan-21 05:00N 51°12' W 056°48'0 0.0 020 / 221016.8 -16.4-19.0
2019-Jan-21 04:00N 51°12' W 056°48'0 0.0 020 / 211019.4 -17.6-20.3
2019-Jan-21 03:00N 51°12' W 056°48'0 0.0 010 / 15 -19.1-21.9
2019-Jan-21 02:00N 51°12' W 056°48'0 0.0 360 / 141025.7 -19.5-22.3
2019-Jan-21 01:00N 51°12' W 056°48'0 0.0 360 / 121028.4 -19.4-22.2
2019-Jan-21 00:00N 51°12' W 056°48'0 0.0 020 / 51029.7 -19.9-22.6
2019-Jan-20 23:00N 51°12' W 056°48'0 0.0 070 / 71029.9 -19.9-23.9
2019-Jan-20 22:00N 51°12' W 056°48'0 0.0 050 / 61029.8 -20.4-24.2
2019-Jan-20 21:00N 51°12' W 056°48'0 0.0 100 / 11032.4 -19.8-23.9
2019-Jan-20 20:00N 51°12' W 056°48'0 0.0 230 / 31033.4 -20.2-24.8
2019-Jan-20 19:00N 51°12' W 056°48'0 0.0 220 / 41033.2 -20.1-23.7
2019-Jan-20 18:00N 51°12' W 056°48'7 7.1 250 / 71032.6 -20.7-25.2
2019-Jan-20 17:00N 51°18' W 056°54'10 9.6 210 / 21034.2 -22.0-26.8
2019-Jan-20 16:00N 51°24' W 057°06'0 0.0 260 / 71034.4 -21.7-27.5
2019-Jan-20 15:00N 51°24' W 057°06'10 9.6 210 / 41034.1 -22.7-27.7
2019-Jan-20 14:00N 51°18' W 056°54'7 3.5 210 / 181033.3 -23.4-28.5
2019-Jan-20 12:00N 51°12' W 056°48'0 0.0 220 / 121031.1 -23.8-28.0
2019-Jan-20 11:00N 51°12' W 056°48'0 0.0 240 / 131031.1 -23.6-27.5
2019-Jan-20 10:00N 51°12' W 056°48'0 0.0 220 / 171029.6 -24.0-29.0
2019-Jan-20 09:00N 51°12' W 056°48'0 0.0 230 / 201028.6 -24.2-28.9
2019-Jan-20 08:00N 51°12' W 056°48'0 0.0 240 / 221027.4 -24.0-28.8
2019-Jan-20 07:00N 51°12' W 056°48'0 0.0 230 / 211026.3 -24.1-28.8
2019-Jan-20 06:00N 51°12' W 056°48'0 0.0 230 / 211025.7 -23.8-28.8
2019-Jan-20 05:00N 51°12' W 056°48'0 0.0 240 / 201025.0 -23.7-29.2
2019-Jan-20 04:00N 51°12' W 056°48'0 0.0 240 / 181024.2 -23.8
2019-Jan-20 03:00N 51°12' W 056°48'0 0.0 240 / 211022.8 -23.1-28.6
2019-Jan-20 02:00N 51°12' W 056°48'0 0.0 240 / 211022.2 -22.1-27.5
2019-Jan-20 00:00N 51°12' W 056°48'0 0.0 240 / 191018.8 -19.0-24.5
2019-Jan-19 23:00N 51°12' W 056°48'7 7.1 250 / 211017.4 -17.6-23.1
2019-Jan-19 22:00N 51°18' W 056°54'10 9.6 250 / 201014.9 -15.7-20.7
2019-Jan-19 21:00N 51°24' W 056°42'1616.1 240 / 211012.3 -14.3-19.9
2019-Jan-19 20:00N 51°30' W 056°18'1312.7 240 / 371008.6 -13.5-19.0
2019-Jan-19 19:00N 51°36' W 056°00'10 9.6 250 / 351004.2 -10.3-15.7
2019-Jan-19 18:00N 51°42' W 055°48'1111.2 220 / 411001.3 -7.4-12.5
2019-Jan-19 17:00N 51°42' W 055°30'1312.7 180 / 391000.1 -6.4-11.1
2019-Jan-19 16:00N 51°36' W 055°12'1414.1 200 / 361001.5 -4.4-9.0
2019-Jan-19 15:00N 51°24' W 055°00'10 9.6 150 / 391003.0 -2.8-4.4
2019-Jan-19 14:00N 51°18' W 054°48'1616.5 140 / 351005.2 -3.2-4.2
2019-Jan-19 13:00N 51°06' W 054°30'1414.2 140 / 351007.1 -3.2-4.7
2019-Jan-19 12:00N 50°54' W 054°18'1312.9 140 / 361010.1 -3.2-5.0
2019-Jan-19 11:00N 50°48' W 054°00'10 9.7 140 / 331011.8 -3.6-5.3
2019-Jan-19 10:00N 50°42' W 053°48'1414.2 140 / 341014.4 -3.3-6.2
2019-Jan-19 09:00N 50°30' W 053°36'1312.9 150 / 321017.4 -3.3-7.3
2019-Jan-19 08:00N 50°24' W 053°18'1414.2 150 / 331019.1 -3.4-7.8
2019-Jan-19 07:00N 50°12' W 053°06'2713.3 150 / 261021.2 -4.2-6.8
2019-Jan-19 05:00N 49°48' W 052°48'1212.0 170 / 201025.1 -4.5-9.9
2019-Jan-19 04:00N 49°36' W 052°48'1212.0 180 / 181026.1 -4.9-9.5
2019-Jan-19 03:00N 49°24' W 052°48'1818.0 180 / 171027.4 -5.5-10.2
2019-Jan-19 02:00N 49°06' W 052°48'1212.0 190 / 191028.6 -5.6-11.2
2019-Jan-19 01:00N 48°54' W 052°48'1212.0 200 / 241029.1 -5.6-11.6
2019-Jan-19 00:00N 48°42' W 052°48'1818.4 210 / 211029.2 -6.1-11.9
2019-Jan-18 23:00N 48°24' W 052°42'1212.0 200 / 201029.7 -5.8-11.3
2019-Jan-18 22:00N 48°12' W 052°42'1818.0 200 / 201030.1 -5.9-11.9
2019-Jan-18 21:00N 47°54' W 052°42'7 7.2 220 / 201029.8 -5.6-11.7
2019-Jan-18 20:00N 47°48' W 052°36'425.5 210 / 151030.1 -6.1-12.4
2019-Jan-18 19:49N 47°44' W 052°37'514.7
2019-Jan-18 19:29N 47°39' W 052°36'510.1
2019-Jan-18 19:00N 47°36' W 052°42'211.6 280 / 51029.9 -5.2-12.3
2019-Jan-18 18:49N 47°34' W 052°42'1 1.3
2019-Jan-18 18:18N 47°33' W 052°42'0 0.0
2019-Jan-18 17:48N 47°33' W 052°42'0 0.0
2019-Jan-18 17:00N 47°33' W 052°42'3668.0
2019-Jan-18 17:00N 47°36' W 052°42'3 3.3 200 / 61029.8 -6.3-13.5
2019-Jan-18 16:12N 47°33' W 052°42'312.7
2019-Jan-18 16:00N 47°36' W 052°42'0 0.0 200 / 71030.0 -6.5-14.2
2019-Jan-18 15:00N 47°36' W 052°42'3 5.2 190 / 91030.2 -7.3-15.3
2019-Jan-18 14:30N 47°33' W 052°42'0 0.0
2019-Jan-18 14:00N 47°33' W 052°42'3623.5
2019-Jan-18 14:00N 47°36' W 052°42'3 3.3 200 / 61030.2 -8.3-14.6
2019-Jan-18 13:12N 47°33' W 052°42'312.8
2019-Jan-18 13:00N 47°36' W 052°42'3 4.4 220 / 51029.4 -8.6-15.1
2019-Jan-18 12:24N 47°33' W 052°42'3 6.4
2019-Jan-18 12:00N 47°36' W 052°42'0 0.0 200 / 51028.1 -9.2-15.9
2019-Jan-18 11:00N 47°36' W 052°42'0 0.0 200 / 51026.9 -9.2-15.9
2019-Jan-18 10:00N 47°36' W 052°42'0 0.0 210 / 31025.8 -9.1-15.8
2019-Jan-18 09:00N 47°36' W 052°42'0 0.0 200 / 71025.0 -9.0-16.0
2019-Jan-18 08:00N 47°36' W 052°42'3 3.7 200 / 51023.9 -8.7-15.5
2019-Jan-18 07:18N 47°33' W 052°42'3 8.5
2019-Jan-18 07:00N 47°36' W 052°42'0 0.0 190 / 101023.1 -8.6-15.5
2019-Jan-18 06:00N 47°36' W 052°42'3 4.4 190 / 131021.8 -8.2-15.2
2019-Jan-18 05:24N 47°33' W 052°42'3 6.4
2019-Jan-18 05:00N 47°36' W 052°42'313.3 190 / 101020.4 -7.7-14.6
2019-Jan-18 04:48N 47°33' W 052°42'3 3.2
2019-Jan-18 04:00N 47°36' W 052°42'0 0.0 180 / 101019.8 -7.5-14.6
2019-Jan-18 03:00N 47°36' W 052°42'0 0.0 200 / 91019.5 -7.1-15.0
2019-Jan-18 02:00N 47°36' W 052°42'313.2 200 / 71017.9 -6.3-11.6
2019-Jan-18 01:48N 47°33' W 052°42'3 3.2
2019-Jan-18 01:00N 47°36' W 052°42'3 2.9 210 / 51016.6 -5.3-10.0
2019-Jan-18 00:06N 47°33' W 052°42'324.9
2019-Jan-18 00:00N 47°36' W 052°42'0 0.0 180 / 101015.4 -4.9-11.0
2019-Jan-17 22:00N 47°36' W 052°42'0 0.0 190 / 121013.5 -3.8-9.9
2019-Jan-17 21:00N 47°36' W 052°42'0 0.0 180 / 131012.4 -2.9-8.7
2019-Jan-17 20:00N 47°36' W 052°42'327.2 180 / 141011.4 -1.4-6.8
2019-Jan-17 19:54N 47°33' W 052°42'3 2.9
2019-Jan-17 19:00N 47°36' W 052°42'3 6.6 180 / 141010.4 0.2-4.6
2019-Jan-17 18:36N 47°33' W 052°42'0 0.0
2019-Jan-17 18:24N 47°33' W 052°42'3 6.4
2019-Jan-17 18:00N 47°36' W 052°42'313.3 180 / 161008.9 1.1-3.0
2019-Jan-17 17:48N 47°33' W 052°42'0 0.0
2019-Jan-17 17:24N 47°33' W 052°42'3 6.4
2019-Jan-17 17:00N 47°36' W 052°42'3 8.8 160 / 121008.0 2.7 0.6
2019-Jan-17 16:42N 47°33' W 052°42'0 0.0
2019-Jan-17 16:24N 47°33' W 052°42'0 0.0
2019-Jan-17 16:00N 47°33' W 052°42'3584.5
2019-Jan-17 16:00N 47°36' W 052°42'3 5.2 160 / 91009.0 2.5-0.2
2019-Jan-17 15:30N 47°33' W 052°42'0 0.0
2019-Jan-17 15:00N 47°33' W 052°42'3584.5
2019-Jan-17 15:00N 47°36' W 052°42'3 4.4 160 / 111010.6 2.0-0.6
2019-Jan-17 14:24N 47°33' W 052°42'3 6.4
2019-Jan-17 14:00N 47°36' W 052°42'3 8.8 160 / 101011.8 1.5-1.1
2019-Jan-17 13:42N 47°33' W 052°42'0 0.0
2019-Jan-17 13:06N 47°33' W 052°42'324.9
2019-Jan-17 13:00N 47°36' W 052°42'0 0.0 160 / 71012.5 0.8-1.8
2019-Jan-17 12:00N 47°36' W 052°42'0 0.0 180 / 71013.0 -0.3-2.7
2019-Jan-17 11:00N 47°36' W 052°42'0 0.0 150 / 41014.3 -0.2-3.4
2019-Jan-17 10:00N 47°36' W 052°42'0 0.0 160 / 41015.3 -0.3-3.7
2019-Jan-17 09:00N 47°36' W 052°42'0 0.0 150 / 61015.7 -0.5-3.7
2019-Jan-17 08:00N 47°36' W 052°42'0 0.0 150 / 31016.4 -0.8-4.0
2019-Jan-17 07:00N 47°36' W 052°42'0 0.0 150 / 41017.0 -1.2-4.6
2019-Jan-17 06:00N 47°36' W 052°42'3 3.3 150 / 41017.7 -1.2-5.4
2019-Jan-17 05:12N 47°33' W 052°42'312.7
2019-Jan-17 05:00N 47°36' W 052°42'0 0.0 170 / 61017.9 -1.7-5.9
2019-Jan-17 03:00N 47°36' W 052°42'0 0.0 160 / 31018.9 -1.8-6.1
2019-Jan-17 02:00N 47°36' W 052°42'0 0.0 190 / 21019.4 -2.7-6.0
2019-Jan-17 01:00N 47°36' W 052°42'0 0.0 180 / 11019.5 -2.9-6.3
2019-Jan-17 00:00N 47°36' W 052°42'0 0.0 200 / 21019.3 -3.7-7.4
2019-Jan-16 23:00N 47°36' W 052°42'3 4.4 150 / 31019.5 -2.8-7.1
2019-Jan-16 22:24N 47°33' W 052°42'3 6.4
2019-Jan-16 22:00N 47°36' W 052°42'0 0.0 140 / 11019.1 -3.6-7.6
2019-Jan-16 21:00N 47°36' W 052°42'0 0.0 150 / 31019.4 -3.4-7.9
2019-Jan-16 20:00N 47°36' W 052°42'0 0.0 190 / 61019.3 -4.4-8.7
2019-Jan-16 19:00N 47°36' W 052°42'0 0.0 190 / 41018.8 -4.0-7.8
2019-Jan-16 18:00N 47°36' W 052°42'0 0.0 170 / 41018.2 -3.8-8.3
2019-Jan-16 17:00N 47°36' W 052°42'3 6.6 210 / 31017.7 -4.8-8.5
2019-Jan-16 16:36N 47°33' W 052°42'0 0.0
2019-Jan-16 16:24N 47°33' W 052°42'3 1.8
2019-Jan-16 15:00N 47°36' W 052°42'0 0.0 190 / 31017.2 -4.5-8.1
2019-Jan-16 14:00N 47°36' W 052°42'0 0.0 220 / 51016.5 -4.4-7.6
2019-Jan-16 13:00N 47°36' W 052°42'0 0.0 260 / 51015.3 -4.3-8.0
2019-Jan-16 12:00N 47°36' W 052°42'0 0.0 250 / 31013.4 -4.3-7.3
2019-Jan-16 11:00N 47°36' W 052°42'0 0.0 260 / 41011.5 -3.8-7.1
2019-Jan-16 10:00N 47°36' W 052°42'3 4.4 210 / 71009.9 -3.4-6.5
2019-Jan-16 09:24N 47°33' W 052°42'3 6.4
2019-Jan-16 09:00N 47°36' W 052°42'0 0.0 210 / 51007.1 -2.9-6.0
2019-Jan-16 08:00N 47°36' W 052°42'3 3.3 210 / 51004.6 -2.3-5.5
2019-Jan-16 07:12N 47°33' W 052°42'312.7
2019-Jan-16 07:00N 47°36' W 052°42'3 5.2 250 / 81002.5 -1.7-4.7
2019-Jan-16 06:30N 47°33' W 052°42'3 5.1
2019-Jan-16 06:00N 47°36' W 052°42'327.2 220 / 10999.7 -1.5-4.4
2019-Jan-16 05:54N 47°33' W 052°42'0 0.0
2019-Jan-16 05:24N 47°33' W 052°42'3 6.4
2019-Jan-16 05:00N 47°36' W 052°42'3 6.6 230 / 7996.3 -1.2-3.3
2019-Jan-16 04:36N 47°33' W 052°42'3 4.3
2019-Jan-16 04:00N 47°36' W 052°42'0 0.0 240 / 9993.0 -0.7-3.1
2019-Jan-16 03:00N 47°36' W 052°42'3 8.8 280 / 6990.3 -0.5-2.2
2019-Jan-16 02:42N 47°33' W 052°42'3 3.7
2019-Jan-16 02:00N 47°36' W 052°42'3 8.8 290 / 7988.1 0.1-1.5
2019-Jan-16 01:42N 47°33' W 052°42'0 0.0
2019-Jan-16 01:24N 47°33' W 052°42'3 6.4
2019-Jan-16 01:00N 47°36' W 052°42'313.3 260 / 5986.4 0.6-0.5
2019-Jan-16 00:48N 47°33' W 052°42'3 3.2
2019-Jan-16 00:00N 47°36' W 052°42'327.2 320 / 1985.5 1.2 0.5
2019-Jan-15 23:54N 47°33' W 052°42'0 0.0
2019-Jan-15 23:30N 47°33' W 052°42'0 0.0
2019-Jan-15 23:00N 47°33' W 052°42'3550.1
2019-Jan-15 23:00N 47°36' W 052°42'3 3.7 020 / 6985.8 2.1 1.8
2019-Jan-15 22:18N 47°33' W 052°42'3 8.5
2019-Jan-15 22:00N 47°36' W 052°42'3 8.8 010 / 2986.5 3.3 2.9
2019-Jan-15 21:42N 47°33' W 052°42'0 0.0
2019-Jan-15 21:30N 47°33' W 052°42'0 0.0
2019-Jan-15 21:00N 47°33' W 052°42'3550.1
2019-Jan-15 21:00N 47°36' W 052°42'3 5.2 070 / 1988.0 3.8 3.1
2019-Jan-15 20:30N 47°33' W 052°42'3 5.1
2019-Jan-15 20:00N 47°36' W 052°42'3 2.6 160 / 3990.3 3.3 2.3
2019-Jan-15 19:00N 47°33' W 052°42'3550.1
2019-Jan-15 19:00N 47°36' W 052°42'3 5.2 170 / 2992.1 2.5 1.8
2019-Jan-15 18:30N 47°33' W 052°42'0 0.0
2019-Jan-15 18:00N 47°33' W 052°42'3550.1
2019-Jan-15 18:00N 47°36' W 052°42'3 5.2 040 / 4996.2 1.6 0.8
2019-Jan-15 17:30N 47°33' W 052°42'3 5.1
2019-Jan-15 17:00N 47°36' W 052°42'3 5.2 360 / 11999.7 0.3-0.4
2019-Jan-15 16:30N 47°33' W 052°42'0 0.0
2019-Jan-15 16:00N 47°33' W 052°42'3584.5
2019-Jan-15 16:00N 47°36' W 052°42'3 4.4 360 / 161003.2 -0.7-1.3
2019-Jan-15 15:24N 47°33' W 052°42'3 6.4
2019-Jan-15 15:00N 47°36' W 052°42'313.3 360 / 161007.5 -1.6-2.2
2019-Jan-15 14:48N 47°33' W 052°42'3 3.2
2019-Jan-15 14:00N 47°36' W 052°42'3 4.4 360 / 91011.9 -1.9-2.5
2019-Jan-15 13:24N 47°33' W 052°42'3 6.4
2019-Jan-15 13:00N 47°36' W 052°42'0 0.0 020 / 61013.5 -2.0-3.2
2019-Jan-15 12:00N 47°36' W 052°42'313.3 050 / 41014.7 -1.7-4.4
2019-Jan-15 11:48N 47°33' W 052°42'3 3.2
2019-Jan-15 11:00N 47°36' W 052°42'327.3 060 / 31016.1 -1.9-5.1
2019-Jan-15 10:54N 47°33' W 052°42'0 0.0
2019-Jan-15 10:30N 47°33' W 052°42'0 0.0
2019-Jan-15 10:00N 47°33' W 052°42'3550.1
2019-Jan-15 10:00N 47°36' W 052°42'3 5.2 010 / 11017.1 -2.2-5.6
2019-Jan-15 09:30N 47°33' W 052°42'0 0.0
2019-Jan-15 08:54N 47°33' W 052°42'0 0.0
2019-Jan-15 08:24N 47°33' W 052°42'3 6.4
2019-Jan-15 08:00N 47°36' W 052°42'3 6.6 020 / 11019.0 -3.1-6.9
2019-Jan-15 07:36N 47°33' W 052°42'0 0.0
2019-Jan-15 07:18N 47°33' W 052°42'3 8.5
2019-Jan-15 07:00N 47°36' W 052°42'313.3 170 / 31020.0 -2.6-7.0
2019-Jan-15 06:48N 47°33' W 052°42'0 0.0
2019-Jan-15 06:30N 47°33' W 052°42'3 5.1
2019-Jan-15 06:00N 47°36' W 052°42'3 8.8 140 / 21021.0 -2.9-6.9
2019-Jan-15 05:42N 47°33' W 052°42'0 0.0
2019-Jan-15 05:30N 47°33' W 052°42'3 5.1
2019-Jan-15 05:00N 47°36' W 052°42'327.3 150 / 31021.3 -2.3-7.0
2019-Jan-15 04:54N 47°33' W 052°42'0 0.0
2019-Jan-15 04:00N 47°33' W 052°42'3550.1
2019-Jan-15 04:00N 47°36' W 052°42'3 4.4 160 / 31022.0 -2.6-7.4
2019-Jan-15 03:24N 47°33' W 052°42'3 6.4
2019-Jan-15 03:00N 47°36' W 052°42'327.2 170 / 41022.1 -2.7-7.5
2019-Jan-15 02:54N 47°33' W 052°42'0 0.0
2019-Jan-15 02:24N 47°33' W 052°42'0 0.0
2019-Jan-15 02:00N 47°33' W 052°42'3550.1
2019-Jan-15 02:00N 47°36' W 052°42'3 3.7 160 / 31022.7 -2.5-7.3
2019-Jan-15 01:18N 47°33' W 052°42'3 8.5
2019-Jan-15 01:00N 47°36' W 052°42'327.2 180 / 61023.2 -3.3-7.5
2019-Jan-15 00:54N 47°33' W 052°42'0 0.0
2019-Jan-15 00:24N 47°33' W 052°42'0 0.0
2019-Jan-15 00:00N 47°33' W 052°42'3550.1
2019-Jan-15 00:00N 47°36' W 052°42'3 5.2 180 / 51022.8 -3.5-7.9
2019-Jan-14 23:30N 47°33' W 052°42'0 0.0
2019-Jan-14 23:00N 47°33' W 052°42'3550.1
2019-Jan-14 23:00N 47°36' W 052°42'3 4.4 190 / 81023.2 -4.1-8.4
2019-Jan-14 22:24N 47°33' W 052°42'3 6.4
2019-Jan-14 22:00N 47°36' W 052°42'313.3 150 / 51022.9 -3.6-8.0
2019-Jan-14 21:48N 47°33' W 052°42'0 0.0
2019-Jan-14 21:24N 47°33' W 052°42'0 0.0
2019-Jan-14 21:00N 47°33' W 052°42'3550.1
2019-Jan-14 21:00N 47°36' W 052°42'3 5.2 160 / 41022.5 -2.8-8.2
2019-Jan-14 20:30N 47°33' W 052°42'3 5.1
2019-Jan-14 20:00N 47°36' W 052°42'3 3.3 180 / 81022.2 -2.5-9.0
2019-Jan-14 19:12N 47°33' W 052°42'312.7
2019-Jan-14 19:00N 47°36' W 052°42'313.3 180 / 101021.6 -1.7-9.6
2019-Jan-14 18:48N 47°33' W 052°42'3 3.2
2019-Jan-14 18:00N 47°36' W 052°42'2 2.6 190 / 101021.1 -1.7-9.5
2019-Jan-14 17:06N 47°34' W 052°42'221.9
2019-Jan-14 17:00N 47°36' W 052°42'211.8 190 / 141020.8 -2.2-8.7
2019-Jan-14 16:48N 47°34' W 052°42'0 0.0
2019-Jan-14 16:18N 47°34' W 052°42'2 7.5
2019-Jan-14 16:00N 47°36' W 052°42'0 0.0 200 / 131020.6 -2.8-8.5
2019-Jan-14 15:00N 47°36' W 052°42'211.8 190 / 141021.5 -4.2-8.5
2019-Jan-14 14:48N 47°34' W 052°42'0 0.0
2019-Jan-14 14:12N 47°34' W 052°42'0 0.0
2019-Jan-14 13:24N 47°34' W 052°42'0 0.0
2019-Jan-14 13:00N 47°34' W 052°42'2551.5
2019-Jan-14 13:00N 47°36' W 052°42'2 3.9 190 / 131021.9 -4.7-9.1
2019-Jan-14 12:24N 47°34' W 052°42'0 0.4
2019-Jan-14 12:00N 47°34' W 052°42'2203.6
2019-Jan-14 12:00N 47°36' W 052°42'2 3.4 170 / 111021.0 -5.2-9.0
2019-Jan-14 11:23N 47°34' W 052°42'2 5.4
2019-Jan-14 11:00N 47°36' W 052°42'2 3.4 180 / 91020.3 -5.3-9.2
2019-Jan-14 10:23N 47°34' W 052°42'2 5.4
2019-Jan-14 10:00N 47°36' W 052°42'2 9.7 200 / 91019.9 -4.9-9.4
2019-Jan-14 09:47N 47°34' W 052°42'0 0.0
2019-Jan-14 09:11N 47°34' W 052°42'211.3
2019-Jan-14 09:00N 47°36' W 052°42'2 4.0 200 / 81019.8 -4.4-9.0
2019-Jan-14 08:29N 47°34' W 052°42'2 4.3
2019-Jan-14 08:00N 47°36' W 052°42'0 0.0 200 / 81019.6 -3.9-8.2
2019-Jan-14 07:00N 47°36' W 052°42'0 0.0 210 / 91019.4 -3.6-8.1
2019-Jan-14 06:00N 47°36' W 052°42'0 0.0 210 / 81019.2 -3.6-8.1
2019-Jan-14 05:00N 47°36' W 052°42'   200 / 61019.0 -3.4-7.7
Track history (hours):
 
Tides and Currents Weather Stations Pressure Air Temp Water Temp Dewpoint Dewpoint Depression Visibility Wind Speed Wind Dir Waves Ship Positions

CCGS Henry Larsen (Canada)

Medium Gulf/River Icebreaker

Last reported at 2019-Jan-24 05:00 UTC. Time now 2019-Jan-24 06:13 UTC.
Position N 51°18' W 056°54'.

Length 100.03 m; beam 19.82 m; draft 7.2 m.

Type: SAR. MMSI: 316013000.

Wind from 270 at 2 knots

Barometer 1021.4 mb
Air temperature -10.8 ° C
Dewpoint -13.0 ° C

Date/timePositionNaut miles runAvg speedWind from/ knotsBaromVisibWave heightAir tempDewpointWater temp
2019-Jan-24 05:00N 51°18' W 056°54'0 0.0 270 / 21021.4 -10.8-13.0
2019-Jan-24 04:00N 51°18' W 056°54'0 0.0 230 / 61021.9 -10.2-13.6
2019-Jan-24 03:00N 51°18' W 056°54'0 0.0 230 / 51022.1 -9.8-13.5
2019-Jan-24 02:00N 51°18' W 056°54'0 0.0 230 / 111021.6 -9.7-13.2
2019-Jan-24 01:00N 51°18' W 056°54'0 0.0 230 / 141021.8 -9.2-13.1
2019-Jan-24 00:00N 51°18' W 056°54'0 0.0 220 / 161021.6 -9.3-13.2
2019-Jan-23 23:00N 51°18' W 056°54'8 7.5 220 / 161021.4 -9.3-13.5
2019-Jan-23 22:00N 51°18' W 057°06'2914.4 240 / 151021.7 -9.8-13.3
2019-Jan-23 20:00N 51°00' W 057°42'1312.8 250 / 131021.1 -9.4-12.8
2019-Jan-23 19:00N 50°54' W 058°00'1312.9 250 / 131020.6 -8.8-13.5
2019-Jan-23 18:00N 50°48' W 058°18'1312.9 240 / 121020.1 -8.4-13.3
2019-Jan-23 17:00N 50°42' W 058°36'1312.9 260 / 81020.5 -9.5-15.5
2019-Jan-23 16:00N 50°36' W 058°54'1111.4 300 / 101020.9 -9.8-16.8
2019-Jan-23 15:00N 50°36' W 059°12'6 6.0 230 / 21021.9 -11.0-18.5
2019-Jan-23 14:00N 50°42' W 059°12'6 6.0 210 / 51021.4 -12.6-19.0
2019-Jan-23 13:00N 50°36' W 059°12'11 5.7 260 / 161020.6 -12.1-18.1
2019-Jan-23 11:00N 50°36' W 058°54'0 0.0 270 / 141019.7 -9.7-15.3
2019-Jan-23 10:00N 50°36' W 058°54'0 0.0 270 / 211018.8 -8.6-12.9
2019-Jan-23 09:00N 50°36' W 058°54'0 0.0 310 / 41017.1 -7.9-12.3
2019-Jan-23 08:00N 50°36' W 058°54'0 0.0 320 / 61015.8 -6.8-10.5
2019-Jan-23 07:00N 50°36' W 058°54'0 0.0 350 / 31014.8 -6.9-10.6
2019-Jan-23 06:00N 50°36' W 058°54'0 0.0 010 / 31013.4 -6.5-10.3
2019-Jan-23 05:00N 50°36' W 058°54'0 0.0 310 / 191012.0 -5.9-8.4
2019-Jan-23 04:00N 50°36' W 058°54'0 0.0 350 / 41010.6 -5.4-8.0
2019-Jan-23 03:00N 50°36' W 058°54'0 0.0 320 / 271008.1 -5.2-7.5
2019-Jan-23 02:00N 50°36' W 058°54'0 0.0 330 / 101006.9 -5.1-6.8
2019-Jan-23 01:00N 50°36' W 058°54'0 0.0 310 / 241005.7 -4.6-6.1
2019-Jan-22 23:00N 50°36' W 058°54'7 7.1 250 / 191005.6 -6.0-7.2
2019-Jan-22 22:00N 50°42' W 058°48'1414.2 200 / 151005.0 -5.9-7.1
2019-Jan-22 21:00N 50°54' W 058°36'1414.2 220 / 131004.0 -6.1-7.8
2019-Jan-22 20:00N 51°06' W 058°24'6 6.0 220 / 131003.7 -6.6-8.8
2019-Jan-22 19:00N 51°12' W 058°24'8 7.5 260 / 111004.0 -6.0-7.3
2019-Jan-22 18:00N 51°12' W 058°36'4 3.8 270 / 51003.8 -6.1-7.8
2019-Jan-22 17:00N 51°12' W 058°30'8 7.5 250 / 81003.5 -7.2-8.5
2019-Jan-22 16:00N 51°12' W 058°18'0 0.0 280 / 61003.3 -7.3-8.4
2019-Jan-22 15:00N 51°12' W 058°18'1515.0 230 / 31002.7 -7.0-8.1
2019-Jan-22 14:00N 51°12' W 057°54'1616.2 180 / 171002.8 -6.8-8.0
2019-Jan-22 13:00N 51°18' W 057°30'1515.0 200 / 201001.8 -5.9-7.6
2019-Jan-22 12:00N 51°18' W 057°06'6 6.0 190 / 21001.7 -5.0-7.0
2019-Jan-22 11:00N 51°24' W 057°06'1616.5 180 / 171000.7 -5.3-6.7
2019-Jan-22 10:00N 51°12' W 056°48'0 0.0 180 / 131000.0 -4.6-6.3
2019-Jan-22 09:00N 51°12' W 056°48'0 0.0 210 / 7998.2 -4.1-6.1
2019-Jan-22 08:00N 51°12' W 056°48'0 0.0 200 / 7998.5 -3.7-5.3
2019-Jan-22 07:00N 51°12' W 056°48'0 0.0 190 / 8996.3 -3.2-4.7
2019-Jan-22 06:00N 51°12' W 056°48'0 0.0 180 / 4996.2 -1.8-2.4
2019-Jan-22 04:00N 51°12' W 056°48'0 0.0 060 / 4995.5 -2.9-3.5
2019-Jan-22 03:00N 51°12' W 056°48'0 0.0 030 / 6994.7 -3.3-3.9
2019-Jan-22 02:00N 51°12' W 056°48'0 0.0 050 / 4995.9 -3.4-4.0
2019-Jan-22 01:00N 51°12' W 056°48'0 0.0 030 / 8994.3 -3.5-4.2
2019-Jan-22 00:00N 51°12' W 056°48'0 0.0 030 / 11995.2 -3.6-4.3
2019-Jan-21 23:00N 51°12' W 056°48'0 0.0 020 / 10995.9 -4.0-4.7
2019-Jan-21 22:00N 51°12' W 056°48'0 0.0 360 / 11996.0 -4.1-4.9
2019-Jan-21 21:00N 51°12' W 056°48'0 0.0 010 / 8995.5 -4.8-5.7
2019-Jan-21 20:00N 51°12' W 056°48'0 0.0 010 / 13994.6 -5.5-6.7
2019-Jan-21 19:00N 51°12' W 056°48'0 0.0 020 / 20994.7 -5.8-7.3
2019-Jan-21 18:00N 51°12' W 056°48'0 0.0 360 / 19993.7 -5.5-7.2
2019-Jan-21 16:00N 51°12' W 056°48'0 0.0 350 / 25993.3 -5.1-6.6
2019-Jan-21 15:00N 51°12' W 056°48'0 0.0 360 / 24993.3 -4.7-5.8
2019-Jan-21 14:00N 51°12' W 056°48'0 0.0 360 / 26993.8 -5.2-6.3
2019-Jan-21 13:00N 51°12' W 056°48'0 0.0 360 / 24994.8 -5.5-6.7
2019-Jan-21 12:00N 51°12' W 056°48'0 0.0 360 / 29995.6 -6.8-8.1
2019-Jan-21 11:00N 51°12' W 056°48'0 0.0 360 / 29997.5 -8.0-9.4
2019-Jan-21 10:00N 51°12' W 056°48'0 0.0 360 / 31999.9 -9.5-11.1
2019-Jan-21 09:00N 51°12' W 056°48'0 0.0 010 / 301002.5 -10.9-12.9
2019-Jan-21 08:00N 51°12' W 056°48'0 0.0 010 / 281006.6 -12.5-14.6
2019-Jan-21 07:00N 51°12' W 056°48'0 0.0 020 / 241009.6 -13.9-16.2
2019-Jan-21 06:00N 51°12' W 056°48'0 0.0 020 / 241013.7 -15.1-17.5
2019-Jan-21 05:00N 51°12' W 056°48'0 0.0 020 / 221016.8 -16.4-19.0
2019-Jan-21 04:00N 51°12' W 056°48'0 0.0 020 / 211019.4 -17.6-20.3
2019-Jan-21 03:00N 51°12' W 056°48'0 0.0 010 / 15 -19.1-21.9
2019-Jan-21 02:00N 51°12' W 056°48'0 0.0 360 / 141025.7 -19.5-22.3
2019-Jan-21 01:00N 51°12' W 056°48'0 0.0 360 / 121028.4 -19.4-22.2
2019-Jan-21 00:00N 51°12' W 056°48'0 0.0 020 / 51029.7 -19.9-22.6
2019-Jan-20 23:00N 51°12' W 056°48'0 0.0 070 / 71029.9 -19.9-23.9
2019-Jan-20 22:00N 51°12' W 056°48'0 0.0 050 / 61029.8 -20.4-24.2
2019-Jan-20 21:00N 51°12' W 056°48'0 0.0 100 / 11032.4 -19.8-23.9
2019-Jan-20 20:00N 51°12' W 056°48'0 0.0 230 / 31033.4 -20.2-24.8
2019-Jan-20 19:00N 51°12' W 056°48'0 0.0 220 / 41033.2 -20.1-23.7
2019-Jan-20 18:00N 51°12' W 056°48'7 7.1 250 / 71032.6 -20.7-25.2
2019-Jan-20 17:00N 51°18' W 056°54'10 9.6 210 / 21034.2 -22.0-26.8
2019-Jan-20 16:00N 51°24' W 057°06'0 0.0 260 / 71034.4 -21.7-27.5
2019-Jan-20 15:00N 51°24' W 057°06'10 9.6 210 / 41034.1 -22.7-27.7
2019-Jan-20 14:00N 51°18' W 056°54'7 3.5 210 / 181033.3 -23.4-28.5
2019-Jan-20 12:00N 51°12' W 056°48'0 0.0 220 / 121031.1 -23.8-28.0
2019-Jan-20 11:00N 51°12' W 056°48'0 0.0 240 / 131031.1 -23.6-27.5
2019-Jan-20 10:00N 51°12' W 056°48'0 0.0 220 / 171029.6 -24.0-29.0
2019-Jan-20 09:00N 51°12' W 056°48'0 0.0 230 / 201028.6 -24.2-28.9
2019-Jan-20 08:00N 51°12' W 056°48'0 0.0 240 / 221027.4 -24.0-28.8
2019-Jan-20 07:00N 51°12' W 056°48'0 0.0 230 / 211026.3 -24.1-28.8
2019-Jan-20 06:00N 51°12' W 056°48'0 0.0 230 / 211025.7 -23.8-28.8
2019-Jan-20 05:00N 51°12' W 056°48'0 0.0 240 / 201025.0 -23.7-29.2
2019-Jan-20 04:00N 51°12' W 056°48'0 0.0 240 / 181024.2 -23.8
2019-Jan-20 03:00N 51°12' W 056°48'0 0.0 240 / 211022.8 -23.1-28.6
2019-Jan-20 02:00N 51°12' W 056°48'0 0.0 240 / 211022.2 -22.1-27.5
2019-Jan-20 00:00N 51°12' W 056°48'0 0.0 240 / 191018.8 -19.0-24.5
2019-Jan-19 23:00N 51°12' W 056°48'7 7.1 250 / 211017.4 -17.6-23.1
2019-Jan-19 22:00N 51°18' W 056°54'10 9.6 250 / 201014.9 -15.7-20.7
2019-Jan-19 21:00N 51°24' W 056°42'1616.1 240 / 211012.3 -14.3-19.9
2019-Jan-19 20:00N 51°30' W 056°18'1312.7 240 / 371008.6 -13.5-19.0
2019-Jan-19 19:00N 51°36' W 056°00'10 9.6 250 / 351004.2 -10.3-15.7
2019-Jan-19 18:00N 51°42' W 055°48'1111.2 220 / 411001.3 -7.4-12.5
2019-Jan-19 17:00N 51°42' W 055°30'1312.7 180 / 391000.1 -6.4-11.1
2019-Jan-19 16:00N 51°36' W 055°12'1414.1 200 / 361001.5 -4.4-9.0
2019-Jan-19 15:00N 51°24' W 055°00'10 9.6 150 / 391003.0 -2.8-4.4
2019-Jan-19 14:00N 51°18' W 054°48'1616.5 140 / 351005.2 -3.2-4.2
2019-Jan-19 13:00N 51°06' W 054°30'1414.2 140 / 351007.1 -3.2-4.7
2019-Jan-19 12:00N 50°54' W 054°18'1312.9 140 / 361010.1 -3.2-5.0
2019-Jan-19 11:00N 50°48' W 054°00'10 9.7 140 / 331011.8 -3.6-5.3
2019-Jan-19 10:00N 50°42' W 053°48'1414.2 140 / 341014.4 -3.3-6.2
2019-Jan-19 09:00N 50°30' W 053°36'1312.9 150 / 321017.4 -3.3-7.3
2019-Jan-19 08:00N 50°24' W 053°18'1414.2 150 / 331019.1 -3.4-7.8
2019-Jan-19 07:00N 50°12' W 053°06'2713.3 150 / 261021.2 -4.2-6.8
2019-Jan-19 05:00N 49°48' W 052°48'1212.0 170 / 201025.1 -4.5-9.9
2019-Jan-19 04:00N 49°36' W 052°48'1212.0 180 / 181026.1 -4.9-9.5
2019-Jan-19 03:00N 49°24' W 052°48'1818.0 180 / 171027.4 -5.5-10.2
2019-Jan-19 02:00N 49°06' W 052°48'1212.0 190 / 191028.6 -5.6-11.2
2019-Jan-19 01:00N 48°54' W 052°48'1212.0 200 / 241029.1 -5.6-11.6
2019-Jan-19 00:00N 48°42' W 052°48'1818.4 210 / 211029.2 -6.1-11.9
2019-Jan-18 23:00N 48°24' W 052°42'1212.0 200 / 201029.7 -5.8-11.3
2019-Jan-18 22:00N 48°12' W 052°42'1818.0 200 / 201030.1 -5.9-11.9
2019-Jan-18 21:00N 47°54' W 052°42'7 7.2 220 / 201029.8 -5.6-11.7
2019-Jan-18 20:00N 47°48' W 052°36'425.5 210 / 151030.1 -6.1-12.4
2019-Jan-18 19:49N 47°44' W 052°37'514.7
2019-Jan-18 19:29N 47°39' W 052°36'510.1
2019-Jan-18 19:00N 47°36' W 052°42'211.6 280 / 51029.9 -5.2-12.3
2019-Jan-18 18:49N 47°34' W 052°42'1 1.3
2019-Jan-18 18:18N 47°33' W 052°42'0 0.0
2019-Jan-18 17:48N 47°33' W 052°42'0 0.0
2019-Jan-18 17:00N 47°33' W 052°42'3668.0
2019-Jan-18 17:00N 47°36' W 052°42'3 3.3 200 / 61029.8 -6.3-13.5
2019-Jan-18 16:12N 47°33' W 052°42'312.7
2019-Jan-18 16:00N 47°36' W 052°42'0 0.0 200 / 71030.0 -6.5-14.2
2019-Jan-18 15:00N 47°36' W 052°42'3 5.2 190 / 91030.2 -7.3-15.3
2019-Jan-18 14:30N 47°33' W 052°42'0 0.0
2019-Jan-18 14:00N 47°33' W 052°42'3623.5
2019-Jan-18 14:00N 47°36' W 052°42'3 3.3 200 / 61030.2 -8.3-14.6
2019-Jan-18 13:12N 47°33' W 052°42'312.8
2019-Jan-18 13:00N 47°36' W 052°42'3 4.4 220 / 51029.4 -8.6-15.1
2019-Jan-18 12:24N 47°33' W 052°42'3 6.4
2019-Jan-18 12:00N 47°36' W 052°42'0 0.0 200 / 51028.1 -9.2-15.9
2019-Jan-18 11:00N 47°36' W 052°42'0 0.0 200 / 51026.9 -9.2-15.9
2019-Jan-18 10:00N 47°36' W 052°42'0 0.0 210 / 31025.8 -9.1-15.8
2019-Jan-18 09:00N 47°36' W 052°42'0 0.0 200 / 71025.0 -9.0-16.0
2019-Jan-18 08:00N 47°36' W 052°42'3 3.7 200 / 51023.9 -8.7-15.5
2019-Jan-18 07:18N 47°33' W 052°42'3 8.5
2019-Jan-18 07:00N 47°36' W 052°42'0 0.0 190 / 101023.1 -8.6-15.5
2019-Jan-18 06:00N 47°36' W 052°42'3 4.4 190 / 131021.8 -8.2-15.2
2019-Jan-18 05:24N 47°33' W 052°42'3 6.4
2019-Jan-18 05:00N 47°36' W 052°42'313.3 190 / 101020.4 -7.7-14.6
2019-Jan-18 04:48N 47°33' W 052°42'3 3.2
2019-Jan-18 04:00N 47°36' W 052°42'0 0.0 180 / 101019.8 -7.5-14.6
2019-Jan-18 03:00N 47°36' W 052°42'0 0.0 200 / 91019.5 -7.1-15.0
2019-Jan-18 02:00N 47°36' W 052°42'313.2 200 / 71017.9 -6.3-11.6
2019-Jan-18 01:48N 47°33' W 052°42'3 3.2
2019-Jan-18 01:00N 47°36' W 052°42'3 2.9 210 / 51016.6 -5.3-10.0
2019-Jan-18 00:06N 47°33' W 052°42'324.9
2019-Jan-18 00:00N 47°36' W 052°42'0 0.0 180 / 101015.4 -4.9-11.0
2019-Jan-17 22:00N 47°36' W 052°42'0 0.0 190 / 121013.5 -3.8-9.9
2019-Jan-17 21:00N 47°36' W 052°42'0 0.0 180 / 131012.4 -2.9-8.7
2019-Jan-17 20:00N 47°36' W 052°42'327.2 180 / 141011.4 -1.4-6.8
2019-Jan-17 19:54N 47°33' W 052°42'3 2.9
2019-Jan-17 19:00N 47°36' W 052°42'3 6.6 180 / 141010.4 0.2-4.6
2019-Jan-17 18:36N 47°33' W 052°42'0 0.0
2019-Jan-17 18:24N 47°33' W 052°42'3 6.4
2019-Jan-17 18:00N 47°36' W 052°42'313.3 180 / 161008.9 1.1-3.0
2019-Jan-17 17:48N 47°33' W 052°42'0 0.0
2019-Jan-17 17:24N 47°33' W 052°42'3 6.4
2019-Jan-17 17:00N 47°36' W 052°42'3 8.8 160 / 121008.0 2.7 0.6
2019-Jan-17 16:42N 47°33' W 052°42'0 0.0
2019-Jan-17 16:24N 47°33' W 052°42'0 0.0
2019-Jan-17 16:00N 47°33' W 052°42'3584.5
2019-Jan-17 16:00N 47°36' W 052°42'3 5.2 160 / 91009.0 2.5-0.2
2019-Jan-17 15:30N 47°33' W 052°42'0 0.0
2019-Jan-17 15:00N 47°33' W 052°42'3584.5
2019-Jan-17 15:00N 47°36' W 052°42'3 4.4 160 / 111010.6 2.0-0.6
2019-Jan-17 14:24N 47°33' W 052°42'3 6.4
2019-Jan-17 14:00N 47°36' W 052°42'3 8.8 160 / 101011.8 1.5-1.1
2019-Jan-17 13:42N 47°33' W 052°42'0 0.0
2019-Jan-17 13:06N 47°33' W 052°42'324.9
2019-Jan-17 13:00N 47°36' W 052°42'0 0.0 160 / 71012.5 0.8-1.8
2019-Jan-17 12:00N 47°36' W 052°42'0 0.0 180 / 71013.0 -0.3-2.7
2019-Jan-17 11:00N 47°36' W 052°42'0 0.0 150 / 41014.3 -0.2-3.4
2019-Jan-17 10:00N 47°36' W 052°42'0 0.0 160 / 41015.3 -0.3-3.7
2019-Jan-17 09:00N 47°36' W 052°42'0 0.0 150 / 61015.7 -0.5-3.7
2019-Jan-17 08:00N 47°36' W 052°42'0 0.0 150 / 31016.4 -0.8-4.0
2019-Jan-17 07:00N 47°36' W 052°42'0 0.0 150 / 41017.0 -1.2-4.6
2019-Jan-17 06:00N 47°36' W 052°42'3 3.3 150 / 41017.7 -1.2-5.4
2019-Jan-17 05:12N 47°33' W 052°42'312.7
2019-Jan-17 05:00N 47°36' W 052°42'0 0.0 170 / 61017.9 -1.7-5.9
2019-Jan-17 03:00N 47°36' W 052°42'0 0.0 160 / 31018.9 -1.8-6.1
2019-Jan-17 02:00N 47°36' W 052°42'0 0.0 190 / 21019.4 -2.7-6.0
2019-Jan-17 01:00N 47°36' W 052°42'0 0.0 180 / 11019.5 -2.9-6.3
2019-Jan-17 00:00N 47°36' W 052°42'0 0.0 200 / 21019.3 -3.7-7.4
2019-Jan-16 23:00N 47°36' W 052°42'3 4.4 150 / 31019.5 -2.8-7.1
2019-Jan-16 22:24N 47°33' W 052°42'3 6.4
2019-Jan-16 22:00N 47°36' W 052°42'0 0.0 140 / 11019.1 -3.6-7.6
2019-Jan-16 21:00N 47°36' W 052°42'0 0.0 150 / 31019.4 -3.4-7.9
2019-Jan-16 20:00N 47°36' W 052°42'0 0.0 190 / 61019.3 -4.4-8.7
2019-Jan-16 19:00N 47°36' W 052°42'0 0.0 190 / 41018.8 -4.0-7.8
2019-Jan-16 18:00N 47°36' W 052°42'0 0.0 170 / 41018.2 -3.8-8.3
2019-Jan-16 17:00N 47°36' W 052°42'3 6.6 210 / 31017.7 -4.8-8.5
2019-Jan-16 16:36N 47°33' W 052°42'0 0.0
2019-Jan-16 16:24N 47°33' W 052°42'3 1.8
2019-Jan-16 15:00N 47°36' W 052°42'0 0.0 190 / 31017.2 -4.5-8.1
2019-Jan-16 14:00N 47°36' W 052°42'0 0.0 220 / 51016.5 -4.4-7.6
2019-Jan-16 13:00N 47°36' W 052°42'0 0.0 260 / 51015.3 -4.3-8.0
2019-Jan-16 12:00N 47°36' W 052°42'0 0.0 250 / 31013.4 -4.3-7.3
2019-Jan-16 11:00N 47°36' W 052°42'0 0.0 260 / 41011.5 -3.8-7.1
2019-Jan-16 10:00N 47°36' W 052°42'3 4.4 210 / 71009.9 -3.4-6.5
2019-Jan-16 09:24N 47°33' W 052°42'3 6.4
2019-Jan-16 09:00N 47°36' W 052°42'0 0.0 210 / 51007.1 -2.9-6.0
2019-Jan-16 08:00N 47°36' W 052°42'3 3.3 210 / 51004.6 -2.3-5.5
2019-Jan-16 07:12N 47°33' W 052°42'312.7
2019-Jan-16 07:00N 47°36' W 052°42'3 5.2 250 / 81002.5 -1.7-4.7
2019-Jan-16 06:30N 47°33' W 052°42'3 5.1
2019-Jan-16 06:00N 47°36' W 052°42'327.2 220 / 10999.7 -1.5-4.4
2019-Jan-16 05:54N 47°33' W 052°42'0 0.0
2019-Jan-16 05:24N 47°33' W 052°42'3 6.4
2019-Jan-16 05:00N 47°36' W 052°42'3 6.6 230 / 7996.3 -1.2-3.3
2019-Jan-16 04:36N 47°33' W 052°42'3 4.3
2019-Jan-16 04:00N 47°36' W 052°42'0 0.0 240 / 9993.0 -0.7-3.1
2019-Jan-16 03:00N 47°36' W 052°42'3 8.8 280 / 6990.3 -0.5-2.2
2019-Jan-16 02:42N 47°33' W 052°42'3 3.7
2019-Jan-16 02:00N 47°36' W 052°42'3 8.8 290 / 7988.1 0.1-1.5
2019-Jan-16 01:42N 47°33' W 052°42'0 0.0
2019-Jan-16 01:24N 47°33' W 052°42'3 6.4
2019-Jan-16 01:00N 47°36' W 052°42'313.3 260 / 5986.4 0.6-0.5
2019-Jan-16 00:48N 47°33' W 052°42'3 3.2
2019-Jan-16 00:00N 47°36' W 052°42'327.2 320 / 1985.5 1.2 0.5
2019-Jan-15 23:54N 47°33' W 052°42'0 0.0
2019-Jan-15 23:30N 47°33' W 052°42'0 0.0
2019-Jan-15 23:00N 47°33' W 052°42'3550.1
2019-Jan-15 23:00N 47°36' W 052°42'3 3.7 020 / 6985.8 2.1 1.8
2019-Jan-15 22:18N 47°33' W 052°42'3 8.5
2019-Jan-15 22:00N 47°36' W 052°42'3 8.8 010 / 2986.5 3.3 2.9
2019-Jan-15 21:42N 47°33' W 052°42'0 0.0
2019-Jan-15 21:30N 47°33' W 052°42'0 0.0
2019-Jan-15 21:00N 47°33' W 052°42'3550.1
2019-Jan-15 21:00N 47°36' W 052°42'3 5.2 070 / 1988.0 3.8 3.1
2019-Jan-15 20:30N 47°33' W 052°42'3 5.1
2019-Jan-15 20:00N 47°36' W 052°42'3 2.6 160 / 3990.3 3.3 2.3
2019-Jan-15 19:00N 47°33' W 052°42'3550.1
2019-Jan-15 19:00N 47°36' W 052°42'3 5.2 170 / 2992.1 2.5 1.8
2019-Jan-15 18:30N 47°33' W 052°42'0 0.0
2019-Jan-15 18:00N 47°33' W 052°42'3550.1
2019-Jan-15 18:00N 47°36' W 052°42'3 5.2 040 / 4996.2 1.6 0.8
2019-Jan-15 17:30N 47°33' W 052°42'3 5.1
2019-Jan-15 17:00N 47°36' W 052°42'3 5.2 360 / 11999.7 0.3-0.4
2019-Jan-15 16:30N 47°33' W 052°42'0 0.0
2019-Jan-15 16:00N 47°33' W 052°42'3584.5
2019-Jan-15 16:00N 47°36' W 052°42'3 4.4 360 / 161003.2 -0.7-1.3
2019-Jan-15 15:24N 47°33' W 052°42'3 6.4
2019-Jan-15 15:00N 47°36' W 052°42'313.3 360 / 161007.5 -1.6-2.2
2019-Jan-15 14:48N 47°33' W 052°42'3 3.2
2019-Jan-15 14:00N 47°36' W 052°42'3 4.4 360 / 91011.9 -1.9-2.5
2019-Jan-15 13:24N 47°33' W 052°42'3 6.4
2019-Jan-15 13:00N 47°36' W 052°42'0 0.0 020 / 61013.5 -2.0-3.2
2019-Jan-15 12:00N 47°36' W 052°42'313.3 050 / 41014.7 -1.7-4.4
2019-Jan-15 11:48N 47°33' W 052°42'3 3.2
2019-Jan-15 11:00N 47°36' W 052°42'327.3 060 / 31016.1 -1.9-5.1
2019-Jan-15 10:54N 47°33' W 052°42'0 0.0
2019-Jan-15 10:30N 47°33' W 052°42'0 0.0
2019-Jan-15 10:00N 47°33' W 052°42'3550.1
2019-Jan-15 10:00N 47°36' W 052°42'3 5.2 010 / 11017.1 -2.2-5.6
2019-Jan-15 09:30N 47°33' W 052°42'0 0.0
2019-Jan-15 08:54N 47°33' W 052°42'0 0.0
2019-Jan-15 08:24N 47°33' W 052°42'3 6.4
2019-Jan-15 08:00N 47°36' W 052°42'3 6.6 020 / 11019.0 -3.1-6.9
2019-Jan-15 07:36N 47°33' W 052°42'0 0.0
2019-Jan-15 07:18N 47°33' W 052°42'3 8.5
2019-Jan-15 07:00N 47°36' W 052°42'313.3 170 / 31020.0 -2.6-7.0
2019-Jan-15 06:48N 47°33' W 052°42'0 0.0
2019-Jan-15 06:30N 47°33' W 052°42'3 5.1
2019-Jan-15 06:00N 47°36' W 052°42'3 8.8 140 / 21021.0 -2.9-6.9
2019-Jan-15 05:42N 47°33' W 052°42'0 0.0
2019-Jan-15 05:30N 47°33' W 052°42'3 5.1
2019-Jan-15 05:00N 47°36' W 052°42'327.3 150 / 31021.3 -2.3-7.0
2019-Jan-15 04:54N 47°33' W 052°42'0 0.0
2019-Jan-15 04:00N 47°33' W 052°42'3550.1
2019-Jan-15 04:00N 47°36' W 052°42'3 4.4 160 / 31022.0 -2.6-7.4
2019-Jan-15 03:24N 47°33' W 052°42'3 6.4
2019-Jan-15 03:00N 47°36' W 052°42'327.2 170 / 41022.1 -2.7-7.5
2019-Jan-15 02:54N 47°33' W 052°42'0 0.0
2019-Jan-15 02:24N 47°33' W 052°42'0 0.0
2019-Jan-15 02:00N 47°33' W 052°42'3550.1
2019-Jan-15 02:00N 47°36' W 052°42'3 3.7 160 / 31022.7 -2.5-7.3
2019-Jan-15 01:18N 47°33' W 052°42'3 8.5
2019-Jan-15 01:00N 47°36' W 052°42'327.2 180 / 61023.2 -3.3-7.5
2019-Jan-15 00:54N 47°33' W 052°42'0 0.0
2019-Jan-15 00:24N 47°33' W 052°42'0 0.0
2019-Jan-15 00:00N 47°33' W 052°42'3550.1
2019-Jan-15 00:00N 47°36' W 052°42'3 5.2 180 / 51022.8 -3.5-7.9
2019-Jan-14 23:30N 47°33' W 052°42'0 0.0
2019-Jan-14 23:00N 47°33' W 052°42'3550.1
2019-Jan-14 23:00N 47°36' W 052°42'3 4.4 190 / 81023.2 -4.1-8.4
2019-Jan-14 22:24N 47°33' W 052°42'3 6.4
2019-Jan-14 22:00N 47°36' W 052°42'313.3 150 / 51022.9 -3.6-8.0
2019-Jan-14 21:48N 47°33' W 052°42'0 0.0
2019-Jan-14 21:24N 47°33' W 052°42'0 0.0
2019-Jan-14 21:00N 47°33' W 052°42'3550.1
2019-Jan-14 21:00N 47°36' W 052°42'3 5.2 160 / 41022.5 -2.8-8.2
2019-Jan-14 20:30N 47°33' W 052°42'3 5.1
2019-Jan-14 20:00N 47°36' W 052°42'3 3.3 180 / 81022.2 -2.5-9.0
2019-Jan-14 19:12N 47°33' W 052°42'312.7
2019-Jan-14 19:00N 47°36' W 052°42'313.3 180 / 101021.6 -1.7-9.6
2019-Jan-14 18:48N 47°33' W 052°42'3 3.2
2019-Jan-14 18:00N 47°36' W 052°42'2 2.6 190 / 101021.1 -1.7-9.5
2019-Jan-14 17:06N 47°34' W 052°42'221.9
2019-Jan-14 17:00N 47°36' W 052°42'211.8 190 / 141020.8 -2.2-8.7
2019-Jan-14 16:48N 47°34' W 052°42'0 0.0
2019-Jan-14 16:18N 47°34' W 052°42'2 7.5
2019-Jan-14 16:00N 47°36' W 052°42'0 0.0 200 / 131020.6 -2.8-8.5
2019-Jan-14 15:00N 47°36' W 052°42'211.8 190 / 141021.5 -4.2-8.5
2019-Jan-14 14:48N 47°34' W 052°42'0 0.0
2019-Jan-14 14:12N 47°34' W 052°42'0 0.0
2019-Jan-14 13:24N 47°34' W 052°42'0 0.0
2019-Jan-14 13:00N 47°34' W 052°42'2551.5
2019-Jan-14 13:00N 47°36' W 052°42'2 3.9 190 / 131021.9 -4.7-9.1
2019-Jan-14 12:24N 47°34' W 052°42'0 0.4
2019-Jan-14 12:00N 47°34' W 052°42'2203.6
2019-Jan-14 12:00N 47°36' W 052°42'2 3.4 170 / 111021.0 -5.2-9.0
2019-Jan-14 11:23N 47°34' W 052°42'2 5.4
2019-Jan-14 11:00N 47°36' W 052°42'2 3.4 180 / 91020.3 -5.3-9.2
2019-Jan-14 10:23N 47°34' W 052°42'2 5.4
2019-Jan-14 10:00N 47°36' W 052°42'2 9.7 200 / 91019.9 -4.9-9.4
2019-Jan-14 09:47N 47°34' W 052°42'0 0.0
2019-Jan-14 09:11N 47°34' W 052°42'211.3
2019-Jan-14 09:00N 47°36' W 052°42'2 4.0 200 / 81019.8 -4.4-9.0
2019-Jan-14 08:29N 47°34' W 052°42'2 4.3
2019-Jan-14 08:00N 47°36' W 052°42'0 0.0 200 / 81019.6 -3.9-8.2
2019-Jan-14 07:00N 47°36' W 052°42'0 0.0 210 / 91019.4 -3.6-8.1
2019-Jan-14 06:00N 47°36' W 052°42'0 0.0 210 / 81019.2 -3.6-8.1
2019-Jan-14 05:00N 47°36' W 052°42'   200 / 61019.0 -3.4-7.7

Dump ship's entire track history